createdAt,value
2022-11-10T00:02:43.718Z,2.83
2022-11-10T00:05:29.461Z,2.90
2022-11-10T00:08:15.277Z,2.83
2022-11-10T00:11:07.772Z,4.00
2022-11-10T00:14:11.851Z,3.60
2022-11-10T00:17:06.444Z,3.50
2022-11-10T00:19:51.657Z,3.20
2022-11-10T00:22:39.054Z,3.17
2022-11-10T00:25:25.080Z,3.53
2022-11-10T00:28:10.338Z,3.53
2022-11-10T00:30:55.677Z,4.07
2022-11-10T00:33:43.113Z,3.03
2022-11-10T00:36:28.476Z,2.97
2022-11-10T00:39:14.152Z,3.10
2022-11-10T00:41:59.726Z,3.73
2022-11-10T00:44:44.942Z,3.53
2022-11-10T00:47:30.480Z,3.33
2022-11-10T00:50:16.379Z,3.47
2022-11-10T00:53:01.979Z,3.00
2022-11-10T00:55:47.450Z,3.30
2022-11-10T00:58:32.703Z,4.00
2022-11-10T01:01:19.889Z,3.30
2022-11-10T01:04:05.639Z,3.60
2022-11-10T01:06:52.813Z,3.37
2022-11-10T01:09:38.915Z,3.30
2022-11-10T01:12:24.296Z,3.30
2022-11-10T01:15:10.758Z,2.87
2022-11-10T01:17:56.917Z,3.03
2022-11-10T01:20:42.228Z,3.30
2022-11-10T01:23:27.920Z,3.30
2022-11-10T01:26:41.514Z,3.50
2022-11-10T01:29:27.106Z,3.00
2022-11-10T01:32:12.621Z,3.53
2022-11-10T01:34:58.189Z,3.20
2022-11-10T01:37:43.801Z,3.63
2022-11-10T01:40:29.258Z,3.57
2022-11-10T01:43:14.912Z,3.50
2022-11-10T01:46:04.563Z,3.40
2022-11-10T01:48:55.537Z,3.20
2022-11-10T01:51:56.787Z,3.30
2022-11-10T01:54:46.270Z,3.30
2022-11-10T01:57:32.105Z,4.03
2022-11-10T02:00:18.638Z,3.40
2022-11-10T02:03:27.025Z,3.60
2022-11-10T02:06:13.867Z,3.67
2022-11-10T02:08:59.569Z,4.47
2022-11-10T02:11:47.060Z,5.10
2022-11-10T02:14:32.652Z,5.97
2022-11-10T02:17:18.273Z,5.73
2022-11-10T02:20:08.059Z,4.53
2022-11-10T02:22:53.364Z,4.40
2022-11-10T02:25:39.182Z,5.53
2022-11-10T02:28:25.810Z,3.70
2022-11-10T02:31:11.131Z,4.40
2022-11-10T02:33:56.408Z,5.67
2022-11-10T02:36:41.998Z,4.70
2022-11-10T02:39:27.549Z,4.50
2022-11-10T02:42:13.154Z,4.70
2022-11-10T02:44:59.232Z,4.43
2022-11-10T02:47:44.860Z,4.07
2022-11-10T02:50:30.149Z,4.50
2022-11-10T02:53:15.638Z,4.07
2022-11-10T02:56:01.237Z,4.10
2022-11-10T02:58:46.753Z,3.90
2022-11-10T03:01:32.346Z,4.17
2022-11-10T03:04:17.897Z,5.17
2022-11-10T03:07:03.695Z,4.17
2022-11-10T03:09:49.128Z,4.20
2022-11-10T03:12:34.613Z,4.00
2022-11-10T03:15:20.215Z,4.40
2022-11-10T03:18:06.003Z,4.53
2022-11-10T03:20:51.602Z,4.87
2022-11-10T03:23:37.048Z,4.53
2022-11-10T03:26:22.552Z,4.13
2022-11-10T03:29:07.973Z,4.73
2022-11-10T03:31:53.277Z,4.63
2022-11-10T03:34:38.950Z,5.10
2022-11-10T03:37:24.544Z,4.43
2022-11-10T03:40:10.527Z,4.80
2022-11-10T03:42:56.289Z,5.03
2022-11-10T03:45:44.841Z,4.90
2022-11-10T03:48:29.997Z,4.30
2022-11-10T03:51:15.534Z,4.53
2022-11-10T03:54:00.946Z,4.60
2022-11-10T03:56:46.443Z,4.60
2022-11-10T03:59:32.024Z,5.00
2022-11-10T04:02:17.561Z,4.80
2022-11-10T04:05:21.856Z,4.90
2022-11-10T04:08:32.590Z,4.53
2022-11-10T04:11:38.339Z,4.50
2022-11-10T04:14:42.310Z,5.27
2022-11-10T04:17:27.715Z,6.40
2022-11-10T04:20:13.259Z,6.00
2022-11-10T04:23:17.520Z,7.20
2022-11-10T04:26:30.084Z,6.70
2022-11-10T04:29:20.226Z,5.90
2022-11-10T04:32:05.969Z,7.00
2022-11-10T04:34:51.483Z,8.90
2022-11-10T04:37:37.132Z,8.37
2022-11-10T04:40:22.594Z,6.40
2022-11-10T04:43:08.072Z,7.10
2022-11-10T04:45:54.020Z,5.73
2022-11-10T04:48:39.348Z,6.47
2022-11-10T04:51:27.588Z,6.33
2022-11-10T04:54:12.911Z,6.23
2022-11-10T04:56:58.658Z,6.43
2022-11-10T04:59:44.178Z,6.47
2022-11-10T05:02:29.620Z,6.70
2022-11-10T05:05:15.322Z,7.13
2022-11-10T05:08:01.127Z,7.43
2022-11-10T05:10:46.728Z,6.20
2022-11-10T05:13:32.327Z,6.33
2022-11-10T05:16:17.773Z,6.60
2022-11-10T05:19:04.111Z,7.27
2022-11-10T05:21:49.276Z,8.23
2022-11-10T05:24:34.813Z,8.27
2022-11-10T05:27:20.453Z,8.10
2022-11-10T05:30:06.585Z,7.80
2022-11-10T05:32:52.113Z,11.37
2022-11-10T05:35:38.588Z,10.30
2022-11-10T05:38:23.754Z,10.10
2022-11-10T05:41:09.334Z,9.30
2022-11-10T05:43:54.886Z,8.17
2022-11-10T05:46:40.299Z,7.93
2022-11-10T05:49:27.475Z,9.03
2022-11-10T05:52:13.013Z,9.50
2022-11-10T05:54:58.500Z,9.47
2022-11-10T05:57:45.981Z,9.73
2022-11-10T06:00:32.133Z,9.63
2022-11-10T06:03:20.178Z,8.90
2022-11-10T06:06:06.319Z,8.57
2022-11-10T06:08:52.140Z,9.27
2022-11-10T06:11:37.630Z,9.30
2022-11-10T06:14:23.219Z,9.23
2022-11-10T06:17:08.891Z,8.70
2022-11-10T06:19:54.539Z,8.37
2022-11-10T06:22:40.345Z,8.63
2022-11-10T06:25:26.269Z,8.97
2022-11-10T06:28:11.501Z,8.87
2022-11-10T06:31:00.162Z,8.93
2022-11-10T06:33:45.854Z,8.00
2022-11-10T06:36:31.467Z,8.27
2022-11-10T06:39:16.688Z,8.13
2022-11-10T06:42:02.251Z,8.03
2022-11-10T06:44:47.787Z,8.63
2022-11-10T06:47:33.419Z,8.13
2022-11-10T06:50:18.601Z,8.77
2022-11-10T06:53:04.243Z,8.33
2022-11-10T06:55:50.361Z,7.47
2022-11-10T06:58:36.293Z,7.73
2022-11-10T07:01:26.295Z,8.40
2022-11-10T07:04:20.802Z,10.03
2022-11-10T07:07:06.488Z,14.40
2022-11-10T07:09:55.139Z,15.13
2022-11-10T07:12:43.229Z,10.27
2022-11-10T07:15:30.241Z,10.73
2022-11-10T07:18:15.512Z,8.87
2022-11-10T07:21:07.393Z,8.00
2022-11-10T07:23:52.920Z,7.37
2022-11-10T07:26:38.298Z,7.70
2022-11-10T07:29:32.742Z,7.03
2022-11-10T07:32:18.606Z,7.43
2022-11-10T07:35:04.325Z,7.23
2022-11-10T07:37:49.503Z,7.27
2022-11-10T07:40:35.467Z,7.10
2022-11-10T07:43:22.398Z,7.23
2022-11-10T07:46:07.861Z,6.70
2022-11-10T07:48:53.592Z,6.37
2022-11-10T07:51:38.956Z,6.87
2022-11-10T07:54:24.395Z,6.13
2022-11-10T07:57:09.908Z,6.13
2022-11-10T07:59:58.156Z,5.77
2022-11-10T08:02:43.909Z,6.20
2022-11-10T08:05:29.699Z,5.97
2022-11-10T08:08:15.710Z,6.80
2022-11-10T08:11:02.195Z,6.60
2022-11-10T08:13:47.790Z,6.77
2022-11-10T08:16:33.771Z,6.50
2022-11-10T08:19:19.665Z,6.13
2022-11-10T08:22:04.818Z,5.80
2022-11-10T08:24:50.320Z,6.23
2022-11-10T08:27:36.201Z,7.80
2022-11-10T08:30:21.584Z,6.83
2022-11-10T08:33:08.690Z,7.53
2022-11-10T08:35:54.127Z,8.17
2022-11-10T08:38:39.447Z,6.63
2022-11-10T08:41:25.028Z,6.17
2022-11-10T08:44:11.432Z,14.77
2022-11-10T08:46:57.204Z,12.87
2022-11-10T08:49:42.612Z,15.07
2022-11-10T08:52:28.067Z,10.03
2022-11-10T08:55:13.383Z,7.70
2022-11-10T08:58:04.248Z,7.07
2022-11-10T09:00:50.315Z,6.87
2022-11-10T09:03:35.740Z,10.30
2022-11-10T09:06:21.263Z,10.30
2022-11-10T09:09:07.399Z,6.67
2022-11-10T09:11:52.990Z,6.70
2022-11-10T09:14:38.594Z,5.80
2022-11-10T09:17:24.072Z,6.27
2022-11-10T09:20:10.258Z,7.00
2022-11-10T09:22:56.502Z,6.50
2022-11-10T09:25:43.051Z,5.73
2022-11-10T09:28:31.414Z,6.00
2022-11-10T09:31:16.638Z,7.70
2022-11-10T09:34:02.001Z,6.13
2022-11-10T09:36:47.633Z,4.40
2022-11-10T09:39:33.177Z,5.07
2022-11-10T09:42:38.521Z,5.60
2022-11-10T09:45:39.355Z,4.90
2022-11-10T09:48:31.373Z,4.20
2022-11-10T09:51:24.775Z,5.60
2022-11-10T09:54:32.014Z,4.80
2022-11-10T09:57:23.911Z,4.63
2022-11-10T10:00:14.857Z,4.83
2022-11-10T10:03:03.802Z,5.50
2022-11-10T10:05:53.884Z,4.37
2022-11-10T10:09:26.703Z,4.20
2022-11-10T10:13:09.156Z,3.70
2022-11-10T10:16:16.366Z,3.50
2022-11-10T10:19:04.514Z,3.90
2022-11-10T10:22:06.623Z,3.40
2022-11-10T10:24:56.662Z,3.33
2022-11-10T10:27:45.274Z,3.60
2022-11-10T10:30:30.474Z,3.73
2022-11-10T10:33:18.903Z,5.20
2022-11-10T10:36:12.480Z,3.77
2022-11-10T10:39:05.952Z,3.60
2022-11-10T10:41:50.999Z,4.00
2022-11-10T10:44:36.542Z,3.77
2022-11-10T10:47:36.894Z,2.90
2022-11-10T10:50:32.284Z,3.80
2022-11-10T10:53:23.031Z,3.33
2022-11-10T10:56:18.620Z,3.73
2022-11-10T10:59:06.027Z,3.73
2022-11-10T11:01:55.469Z,3.67
2022-11-10T11:04:40.749Z,3.40
2022-11-10T11:07:26.221Z,3.33
2022-11-10T11:10:41.197Z,3.80
2022-11-10T11:13:28.114Z,4.03
2022-11-10T11:16:13.683Z,4.43
2022-11-10T11:18:59.573Z,2.87
2022-11-10T11:22:09.487Z,3.47
2022-11-10T11:25:16.909Z,2.90
2022-11-10T11:28:21.370Z,2.90
2022-11-10T11:31:20.031Z,2.50
2022-11-10T11:34:23.042Z,2.70
2022-11-10T11:37:19.014Z,2.70
2022-11-10T11:40:17.091Z,2.20
2022-11-10T11:43:19.340Z,2.20
2022-11-10T11:46:26.601Z,2.30
2022-11-10T11:49:37.068Z,2.70
2022-11-10T11:52:30.877Z,2.17
2022-11-10T11:55:25.715Z,2.60
2022-11-10T11:58:28.263Z,2.70
2022-11-10T12:01:31.700Z,2.87
2022-11-10T12:04:57.788Z,2.40
2022-11-10T12:08:00.264Z,2.27
2022-11-10T12:11:06.723Z,2.10
2022-11-10T12:14:03.844Z,2.07
2022-11-10T12:17:12.053Z,2.17
2022-11-10T12:20:12.357Z,2.30
2022-11-10T12:23:18.916Z,2.20
2022-11-10T12:26:04.080Z,2.30
2022-11-10T12:29:25.239Z,2.30
2022-11-10T12:32:33.276Z,1.70
2022-11-10T12:35:28.395Z,2.00
2022-11-10T12:38:26.253Z,1.77
2022-11-10T12:41:16.816Z,2.10
2022-11-10T12:44:13.419Z,1.80
2022-11-10T12:47:02.784Z,1.80
2022-11-10T12:50:23.126Z,2.10
2022-11-10T12:53:20.640Z,1.80
2022-11-10T12:56:24.706Z,2.10
2022-11-10T12:59:24.825Z,2.20
2022-11-10T13:02:40.206Z,1.70
2022-11-10T13:05:41.930Z,1.63
2022-11-10T13:08:35.755Z,1.80
2022-11-10T13:11:27.039Z,1.70
2022-11-10T13:14:26.076Z,1.57
2022-11-10T13:17:34.268Z,1.90
2022-11-10T13:20:38.767Z,2.07
2022-11-10T13:23:28.529Z,1.40
2022-11-10T13:26:48.579Z,1.67
2022-11-10T13:29:43.234Z,1.60
2022-11-10T13:32:31.531Z,1.60
2022-11-10T13:35:39.975Z,1.77
2022-11-10T13:38:40.523Z,1.90
2022-11-10T13:41:27.054Z,1.70
2022-11-10T13:44:36.450Z,1.77
2022-11-10T13:47:35.070Z,1.40
2022-11-10T13:50:25.635Z,1.73
2022-11-10T13:53:44.801Z,1.87
2022-11-10T13:56:47.960Z,1.90
2022-11-10T13:59:46.300Z,1.90
2022-11-10T14:02:34.682Z,2.00
2022-11-10T14:05:29.693Z,1.90
2022-11-10T14:08:20.337Z,1.83
2022-11-10T14:11:17.503Z,1.90
2022-11-10T14:14:11.702Z,1.70
2022-11-10T14:16:58.244Z,1.70
2022-11-10T14:19:45.501Z,1.63
2022-11-10T14:22:50.768Z,1.70
2022-11-10T14:25:41.183Z,1.50
2022-11-10T14:28:33.254Z,1.50
2022-11-10T14:31:25.582Z,1.60
2022-11-10T14:34:18.687Z,2.83
2022-11-10T14:37:04.924Z,1.90
2022-11-10T14:39:58.026Z,2.00
2022-11-10T14:42:45.934Z,1.37
2022-11-10T14:45:31.518Z,1.57
2022-11-10T14:48:20.548Z,1.90
2022-11-10T14:51:15.154Z,2.30
2022-11-10T14:54:01.785Z,2.30
2022-11-10T14:56:47.687Z,2.00
2022-11-10T14:59:33.437Z,1.80
2022-11-10T15:02:19.931Z,1.70
2022-11-10T15:05:05.714Z,1.70
2022-11-10T15:07:57.213Z,1.40
2022-11-10T15:10:50.679Z,1.47
2022-11-10T15:13:38.634Z,1.60
2022-11-10T15:16:32.865Z,2.00
2022-11-10T15:19:24.396Z,2.03
2022-11-10T15:22:13.060Z,2.07
2022-11-10T15:25:10.391Z,1.70
2022-11-10T15:28:05.860Z,1.60
2022-11-10T15:30:57.853Z,1.60
2022-11-10T15:33:48.545Z,1.53
2022-11-10T15:36:39.667Z,1.87
2022-11-10T15:39:27.204Z,1.40
2022-11-10T15:42:16.232Z,1.60
2022-11-10T15:45:01.866Z,1.60
2022-11-10T15:47:47.240Z,1.20
2022-11-10T15:50:32.693Z,1.40
2022-11-10T15:53:41.133Z,1.67
2022-11-10T15:56:27.268Z,1.60
2022-11-10T15:59:12.623Z,1.40
2022-11-10T16:01:59.367Z,1.30
2022-11-10T16:04:45.064Z,1.70
2022-11-10T16:07:30.234Z,1.57
2022-11-10T16:10:15.808Z,1.50
2022-11-10T16:13:01.341Z,1.90
2022-11-10T16:15:47.230Z,1.77
2022-11-10T16:18:32.903Z,1.40
2022-11-10T16:21:21.420Z,1.50
2022-11-10T16:24:07.166Z,1.50
2022-11-10T16:26:53.023Z,1.40
2022-11-10T16:29:38.699Z,1.50
2022-11-10T16:32:24.489Z,1.30
2022-11-10T16:35:14.084Z,1.50
2022-11-10T16:37:59.224Z,1.40
2022-11-10T16:40:46.579Z,1.43
2022-11-10T16:43:32.127Z,1.30
2022-11-10T16:46:21.860Z,1.70
2022-11-10T16:49:35.852Z,1.40
2022-11-10T16:52:22.627Z,1.50
2022-11-10T16:55:12.407Z,1.60
2022-11-10T16:57:58.147Z,1.30
2022-11-10T17:00:45.140Z,1.37
2022-11-10T17:03:44.360Z,1.53
2022-11-10T17:06:30.154Z,1.70
2022-11-10T17:09:22.295Z,1.47
2022-11-10T17:12:13.183Z,1.50
2022-11-10T17:14:58.736Z,1.43
2022-11-10T17:17:46.809Z,1.30
2022-11-10T17:20:35.033Z,1.80
2022-11-10T17:23:25.450Z,1.80
2022-11-10T17:26:12.758Z,1.60
2022-11-10T17:28:58.689Z,1.60
2022-11-10T17:31:45.370Z,1.50
2022-11-10T17:34:30.792Z,1.70
2022-11-10T17:37:16.593Z,1.60
2022-11-10T17:40:11.592Z,1.50
2022-11-10T17:42:56.959Z,1.60
2022-11-10T17:45:42.422Z,1.50
2022-11-10T17:48:28.091Z,1.50
2022-11-10T17:51:19.585Z,1.57
2022-11-10T17:54:08.687Z,1.40
2022-11-10T17:56:54.205Z,1.50
2022-11-10T17:59:39.897Z,1.40
2022-11-10T18:02:25.433Z,1.80
2022-11-10T18:05:13.311Z,1.90
2022-11-10T18:07:59.048Z,1.73
2022-11-10T18:10:50.086Z,1.70
2022-11-10T18:13:37.210Z,1.80
2022-11-10T18:16:22.636Z,1.97
2022-11-10T18:19:10.118Z,1.70
2022-11-10T18:21:55.415Z,2.10
2022-11-10T18:24:42.518Z,1.93
2022-11-10T18:27:28.653Z,2.03
2022-11-10T18:30:14.923Z,1.63
2022-11-10T18:33:04.785Z,1.50
2022-11-10T18:35:50.490Z,1.40
2022-11-10T18:38:35.997Z,1.47
2022-11-10T18:41:40.135Z,1.60
2022-11-10T18:44:26.361Z,1.50
2022-11-10T18:47:12.989Z,1.20
2022-11-10T18:49:58.266Z,1.37
2022-11-10T18:52:44.428Z,1.67
2022-11-10T18:55:30.034Z,2.40
2022-11-10T18:58:15.774Z,2.40
2022-11-10T19:01:08.945Z,2.03
2022-11-10T19:03:55.178Z,1.60
2022-11-10T19:06:41.086Z,1.43
2022-11-10T19:09:26.376Z,1.67
2022-11-10T19:12:13.016Z,1.50
2022-11-10T19:14:58.543Z,1.60
2022-11-10T19:17:44.234Z,1.50
2022-11-10T19:20:29.893Z,1.50
2022-11-10T19:23:15.342Z,1.57
2022-11-10T19:26:01.830Z,1.90
2022-11-10T19:28:47.672Z,1.30
2022-11-10T19:31:33.206Z,1.57
2022-11-10T19:34:19.535Z,1.23
2022-11-10T19:37:05.863Z,1.20
2022-11-10T19:39:51.337Z,1.27
2022-11-10T19:42:36.920Z,1.13
2022-11-10T19:45:22.652Z,1.30
2022-11-10T19:48:08.128Z,1.23
2022-11-10T19:50:57.163Z,1.10
2022-11-10T19:53:44.712Z,1.20
2022-11-10T19:56:32.334Z,1.40
2022-11-10T19:59:19.291Z,1.40
2022-11-10T20:02:05.217Z,1.43
2022-11-10T20:05:08.899Z,1.20
2022-11-10T20:08:12.370Z,1.53
2022-11-10T20:11:20.962Z,1.13
2022-11-10T20:14:07.076Z,1.20
2022-11-10T20:16:52.439Z,1.77
2022-11-10T20:19:41.042Z,1.70
2022-11-10T20:22:26.680Z,1.90
2022-11-10T20:25:12.319Z,2.10
2022-11-10T20:27:58.623Z,2.80
2022-11-10T20:30:44.515Z,2.63
2022-11-10T20:33:31.384Z,2.60
2022-11-10T20:36:28.766Z,2.83
2022-11-10T20:39:14.346Z,2.80
2022-11-10T20:41:59.861Z,2.80
2022-11-10T20:44:45.506Z,2.90
2022-11-10T20:47:30.925Z,2.80
2022-11-10T20:50:21.680Z,2.83
2022-11-10T20:53:09.497Z,2.30
2022-11-10T20:56:00.961Z,3.10
2022-11-10T20:58:46.936Z,3.33
2022-11-10T21:01:33.679Z,3.00
2022-11-10T21:04:19.288Z,3.20
2022-11-10T21:07:10.419Z,2.60
2022-11-10T21:09:56.035Z,2.37
2022-11-10T21:12:50.388Z,2.50
2022-11-10T21:15:39.007Z,2.00
2022-11-10T21:18:26.972Z,2.70
2022-11-10T21:21:21.541Z,2.43
2022-11-10T21:24:08.081Z,2.20
2022-11-10T21:26:54.094Z,2.20
2022-11-10T21:29:40.021Z,2.40
2022-11-10T21:32:25.412Z,2.17
2022-11-10T21:35:10.793Z,2.20
2022-11-10T21:37:56.300Z,2.63
2022-11-10T21:40:41.925Z,2.67
2022-11-10T21:43:27.058Z,4.60
2022-11-10T21:46:12.817Z,3.87
2022-11-10T21:49:01.959Z,3.57
2022-11-10T21:51:50.005Z,3.33
2022-11-10T21:54:35.676Z,3.00
2022-11-10T21:57:21.426Z,2.50
2022-11-10T22:00:07.472Z,2.23
2022-11-10T22:02:58.358Z,2.60
2022-11-10T22:05:44.227Z,2.30
2022-11-10T22:08:29.493Z,2.53
2022-11-10T22:11:36.463Z,2.20
2022-11-10T22:14:40.146Z,2.10
2022-11-10T22:17:45.681Z,2.27
2022-11-10T22:20:31.249Z,2.40
2022-11-10T22:23:16.536Z,2.40
2022-11-10T22:26:02.168Z,2.47
2022-11-10T22:28:48.101Z,2.03
2022-11-10T22:31:33.948Z,2.33
2022-11-10T22:34:20.201Z,2.10
2022-11-10T22:37:05.723Z,2.20
2022-11-10T22:40:09.848Z,1.90
2022-11-10T22:43:13.854Z,1.80
2022-11-10T22:45:59.219Z,1.90
2022-11-10T22:48:44.781Z,2.27
2022-11-10T22:51:31.631Z,2.67
2022-11-10T22:54:19.686Z,2.53
2022-11-10T22:57:05.637Z,2.83
2022-11-10T22:59:51.210Z,2.93
2022-11-10T23:02:36.962Z,2.60
2022-11-10T23:05:22.339Z,2.10
2022-11-10T23:08:07.838Z,2.87
2022-11-10T23:11:06.164Z,2.57
2022-11-10T23:13:52.159Z,2.30
2022-11-10T23:16:37.699Z,2.20
2022-11-10T23:19:23.279Z,2.07
2022-11-10T23:22:08.689Z,2.07
2022-11-10T23:24:56.931Z,2.10
2022-11-10T23:27:42.864Z,2.40
2022-11-10T23:30:28.311Z,2.00
2022-11-10T23:33:14.065Z,2.47
2022-11-10T23:35:59.675Z,2.20
2022-11-10T23:38:48.610Z,2.20
2022-11-10T23:41:33.992Z,2.30
2022-11-10T23:44:19.548Z,2.27
2022-11-10T23:47:05.154Z,2.20
2022-11-10T23:49:50.745Z,2.50
2022-11-10T23:52:36.323Z,2.17
2022-11-10T23:55:21.911Z,2.00
2022-11-10T23:58:08.234Z,1.70
